OPKC Airport Information

Runway Information
Runway 07L Length 10500 ft width 151 ft
Elevation 77 ft Threshold 0 ft Heading 75
Runway 25R Length 10500 ft Width 151 ft
Elevation 100 ft Threshold 0 ft Heading 255
Runway 07R Length 11155 ft width 151 ft
Elevation 71 ft Threshold 0 ft Heading 74
Runway 25L Length 11155 ft Width 151 ft
Elevation 89 ft Threshold 0 ft Heading 254
Airport Frequencies
Type APP Name KARACHI AP Frequency 125.5 MHZ
Type ATIS Name ATIS Frequency 126.7 MHZ
Type GND Name KARACHI GN Frequency 121.6 MHZ
Type TWR Name KARACHI TW Frequency 118.3 MHZ
Airport Navaids
Type VOR-DME Name Karachi Frequency 112100 KHZ
Type NDB Name Karachi Frequency 271 KHZ
Airport Weather Information & NOTAM
ADDS - METARS form results

(2116 UTC 16 August 2018)
 
METAR text: OPKC 162055Z 23008KT 6000 SCT020 28/23 Q1000 NOSIG
Conditions at: OPKC (KARACHI INTL ARP, PK) observed 2055 UTC 16 August 2018
Temperature: 28.0°C (82°F)
Dewpoint: 23.0°C (73°F) [RH = 74%]
Pressure (altimeter): 29.53 inches Hg (1000.0 mb)
Winds: from the SW (230 degrees) at 9 MPH (8 knots; 4.2 m/s)
Visibility: 4 miles (6 km)
Ceiling: at least 12,000 feet AGL
Clouds: scattered clouds at 2000 feet AGL
Weather: no significant weather observed at this time

METAR text: OPKC 162025Z 26009KT 6000 BKN020 28/23 Q1001 NOSIG
Conditions at: OPKC (KARACHI INTL ARP, PK) observed 2025 UTC 16 August 2018
Temperature: 28.0°C (82°F)
Dewpoint: 23.0°C (73°F) [RH = 74%]
Pressure (altimeter): 29.56 inches Hg (1001.0 mb)
Winds: from the W (260 degrees) at 10 MPH (9 knots; 4.7 m/s)
Visibility: 4 miles (6 km)
Ceiling: 2000 feet AGL
Clouds: broken clouds at 2000 feet AGL
Weather: no significant weather observed at this time